sensor_id;sensor_type;location;lat;lon;timestamp;P1;durP1;ratioP1;P2;durP2;ratioP2
74503;SDS011;62988;55.776;37.544;2023-05-29T00:01:08;5.70;;;1.70;;
74503;SDS011;62988;55.776;37.544;2023-05-29T00:03:34;5.80;;;1.83;;
74503;SDS011;62988;55.776;37.544;2023-05-29T00:06:02;7.28;;;2.10;;
74503;SDS011;62988;55.776;37.544;2023-05-29T00:08:27;5.30;;;1.67;;
74503;SDS011;62988;55.776;37.544;2023-05-29T00:10:53;6.18;;;1.80;;
74503;SDS011;62988;55.776;37.544;2023-05-29T00:13:18;3.38;;;1.50;;
74503;SDS011;62988;55.776;37.544;2023-05-29T00:15:43;4.60;;;1.77;;
74503;SDS011;62988;55.776;37.544;2023-05-29T00:18:09;4.90;;;1.87;;
74503;SDS011;62988;55.776;37.544;2023-05-29T00:20:34;6.90;;;1.60;;
74503;SDS011;62988;55.776;37.544;2023-05-29T00:23:00;5.13;;;1.70;;
74503;SDS011;62988;55.776;37.544;2023-05-29T00:25:27;4.65;;;1.40;;
74503;SDS011;62988;55.776;37.544;2023-05-29T00:27:52;5.07;;;1.80;;
74503;SDS011;62988;55.776;37.544;2023-05-29T00:30:18;7.30;;;1.77;;
74503;SDS011;62988;55.776;37.544;2023-05-29T00:32:43;5.20;;;1.83;;
74503;SDS011;62988;55.776;37.544;2023-05-29T00:35:08;16.43;;;1.73;;
74503;SDS011;62988;55.776;37.544;2023-05-29T00:37:35;3.78;;;1.77;;
74503;SDS011;62988;55.776;37.544;2023-05-29T00:40:00;12.70;;;1.93;;
74503;SDS011;62988;55.776;37.544;2023-05-29T00:42:25;4.17;;;1.50;;
74503;SDS011;62988;55.776;37.544;2023-05-29T00:44:51;4.13;;;1.97;;
74503;SDS011;62988;55.776;37.544;2023-05-29T00:47:16;7.30;;;1.87;;
74503;SDS011;62988;55.776;37.544;2023-05-29T00:49:41;3.70;;;1.50;;
74503;SDS011;62988;55.776;37.544;2023-05-29T00:52:07;8.20;;;1.75;;
74503;SDS011;62988;55.776;37.544;2023-05-29T00:54:34;7.18;;;1.90;;
74503;SDS011;62988;55.776;37.544;2023-05-29T00:57:00;6.57;;;1.50;;
74503;SDS011;62988;55.776;37.544;2023-05-29T00:59:26;4.63;;;1.80;;
74503;SDS011;62988;55.776;37.544;2023-05-29T01:01:53;3.90;;;1.65;;
74503;SDS011;62988;55.776;37.544;2023-05-29T01:04:19;5.25;;;1.35;;
74503;SDS011;62988;55.776;37.544;2023-05-29T01:06:46;4.38;;;1.60;;
74503;SDS011;62988;55.776;37.544;2023-05-29T01:09:11;2.72;;;1.30;;
74503;SDS011;62988;55.776;37.544;2023-05-29T01:14:22;3.20;;;1.38;;
74503;SDS011;62988;55.776;37.544;2023-05-29T01:16:55;2.30;;;1.20;;
74503;SDS011;62988;55.776;37.544;2023-05-29T01:19:40;5.00;;;1.38;;
74503;SDS011;62988;55.776;37.544;2023-05-29T01:22:12;5.43;;;1.70;;
74503;SDS011;62988;55.776;37.544;2023-05-29T01:24:48;7.78;;;2.22;;
74503;SDS011;62988;55.776;37.544;2023-05-29T01:27:15;8.85;;;1.55;;
74503;SDS011;62988;55.776;37.544;2023-05-29T01:29:42;11.90;;;2.25;;
74503;SDS011;62988;55.776;37.544;2023-05-29T01:32:08;8.10;;;2.17;;
74503;SDS011;62988;55.776;37.544;2023-05-29T01:34:34;3.10;;;1.25;;
74503;SDS011;62988;55.776;37.544;2023-05-29T01:36:59;6.70;;;1.60;;
74503;SDS011;62988;55.776;37.544;2023-05-29T01:39:24;3.17;;;1.60;;
74503;SDS011;62988;55.776;37.544;2023-05-29T01:41:50;3.20;;;1.58;;
74503;SDS011;62988;55.776;37.544;2023-05-29T01:44:16;10.25;;;1.95;;
74503;SDS011;62988;55.776;37.544;2023-05-29T01:46:42;6.50;;;1.90;;
74503;SDS011;62988;55.776;37.544;2023-05-29T01:49:08;4.28;;;1.38;;
74503;SDS011;62988;55.776;37.544;2023-05-29T01:51:34;3.80;;;1.45;;
74503;SDS011;62988;55.776;37.544;2023-05-29T01:54:00;6.32;;;1.80;;
74503;SDS011;62988;55.776;37.544;2023-05-29T01:56:26;4.13;;;1.90;;
74503;SDS011;62988;55.776;37.544;2023-05-29T01:58:52;6.78;;;1.73;;
74503;SDS011;62988;55.776;37.544;2023-05-29T02:01:19;4.78;;;1.50;;
74503;SDS011;62988;55.776;37.544;2023-05-29T02:03:44;6.95;;;1.70;;
74503;SDS011;62988;55.776;37.544;2023-05-29T02:06:09;7.50;;;2.67;;
74503;SDS011;62988;55.776;37.544;2023-05-29T02:08:36;6.00;;;1.70;;
74503;SDS011;62988;55.776;37.544;2023-05-29T02:11:01;5.97;;;1.33;;
74503;SDS011;62988;55.776;37.544;2023-05-29T02:13:26;2.70;;;1.20;;
74503;SDS011;62988;55.776;37.544;2023-05-29T02:15:52;3.93;;;1.60;;
74503;SDS011;62988;55.776;37.544;2023-05-29T02:18:17;7.73;;;1.30;;
74503;SDS011;62988;55.776;37.544;2023-05-29T02:20:44;6.78;;;1.40;;
74503;SDS011;62988;55.776;37.544;2023-05-29T02:23:09;6.72;;;1.77;;
74503;SDS011;62988;55.776;37.544;2023-05-29T02:25:35;6.47;;;2.20;;
74503;SDS011;62988;55.776;37.544;2023-05-29T02:28:01;7.90;;;1.88;;
74503;SDS011;62988;55.776;37.544;2023-05-29T02:30:27;7.95;;;2.03;;
74503;SDS011;62988;55.776;37.544;2023-05-29T02:32:52;4.80;;;1.92;;
74503;SDS011;62988;55.776;37.544;2023-05-29T02:35:18;7.13;;;1.60;;
74503;SDS011;62988;55.776;37.544;2023-05-29T02:37:46;4.43;;;1.50;;
74503;SDS011;62988;55.776;37.544;2023-05-29T02:40:11;5.85;;;1.40;;
74503;SDS011;62988;55.776;37.544;2023-05-29T02:42:36;5.30;;;1.65;;
74503;SDS011;62988;55.776;37.544;2023-05-29T02:45:02;7.33;;;1.77;;
74503;SDS011;62988;55.776;37.544;2023-05-29T02:47:27;5.38;;;1.70;;
74503;SDS011;62988;55.776;37.544;2023-05-29T02:49:53;5.10;;;1.60;;
74503;SDS011;62988;55.776;37.544;2023-05-29T02:52:18;6.90;;;1.90;;
74503;SDS011;62988;55.776;37.544;2023-05-29T02:54:43;5.30;;;1.80;;
74503;SDS011;62988;55.776;37.544;2023-05-29T02:57:09;8.43;;;1.90;;
74503;SDS011;62988;55.776;37.544;2023-05-29T02:59:34;5.40;;;2.30;;
74503;SDS011;62988;55.776;37.544;2023-05-29T03:02:00;3.80;;;1.65;;
74503;SDS011;62988;55.776;37.544;2023-05-29T03:04:26;4.28;;;1.50;;
74503;SDS011;62988;55.776;37.544;2023-05-29T03:06:51;7.38;;;1.60;;
74503;SDS011;62988;55.776;37.544;2023-05-29T03:09:18;7.35;;;2.00;;
74503;SDS011;62988;55.776;37.544;2023-05-29T03:11:43;8.93;;;1.98;;
74503;SDS011;62988;55.776;37.544;2023-05-29T03:14:09;9.70;;;1.83;;
74503;SDS011;62988;55.776;37.544;2023-05-29T03:16:35;5.43;;;1.67;;
74503;SDS011;62988;55.776;37.544;2023-05-29T03:19:01;7.18;;;1.98;;
74503;SDS011;62988;55.776;37.544;2023-05-29T03:21:26;6.35;;;2.05;;
74503;SDS011;62988;55.776;37.544;2023-05-29T03:23:51;7.15;;;1.60;;
74503;SDS011;62988;55.776;37.544;2023-05-29T03:26:17;5.37;;;1.70;;
74503;SDS011;62988;55.776;37.544;2023-05-29T03:28:42;4.70;;;1.50;;
74503;SDS011;62988;55.776;37.544;2023-05-29T03:31:07;4.03;;;1.70;;
74503;SDS011;62988;55.776;37.544;2023-05-29T03:33:33;4.65;;;1.67;;
74503;SDS011;62988;55.776;37.544;2023-05-29T03:35:59;6.00;;;1.80;;
74503;SDS011;62988;55.776;37.544;2023-05-29T03:38:24;7.50;;;2.40;;
74503;SDS011;62988;55.776;37.544;2023-05-29T03:40:49;7.83;;;2.27;;
74503;SDS011;62988;55.776;37.544;2023-05-29T03:43:15;8.13;;;2.03;;
74503;SDS011;62988;55.776;37.544;2023-05-29T03:45:40;4.47;;;1.77;;
74503;SDS011;62988;55.776;37.544;2023-05-29T03:48:05;4.93;;;1.73;;
74503;SDS011;62988;55.776;37.544;2023-05-29T03:50:31;6.63;;;2.03;;
74503;SDS011;62988;55.776;37.544;2023-05-29T03:52:56;4.47;;;1.50;;
74503;SDS011;62988;55.776;37.544;2023-05-29T03:55:21;7.67;;;2.00;;
74503;SDS011;62988;55.776;37.544;2023-05-29T03:57:47;3.90;;;1.45;;
74503;SDS011;62988;55.776;37.544;2023-05-29T04:00:12;3.93;;;1.50;;
74503;SDS011;62988;55.776;37.544;2023-05-29T04:02:38;3.80;;;1.40;;
74503;SDS011;62988;55.776;37.544;2023-05-29T04:05:07;5.70;;;1.70;;
74503;SDS011;62988;55.776;37.544;2023-05-29T04:07:34;7.00;;;1.70;;
74503;SDS011;62988;55.776;37.544;2023-05-29T04:09:59;5.57;;;1.75;;
74503;SDS011;62988;55.776;37.544;2023-05-29T04:12:24;5.78;;;1.77;;
74503;SDS011;62988;55.776;37.544;2023-05-29T04:14:50;5.15;;;1.90;;
74503;SDS011;62988;55.776;37.544;2023-05-29T04:17:15;4.67;;;1.73;;
74503;SDS011;62988;55.776;37.544;2023-05-29T04:19:41;5.20;;;1.80;;
74503;SDS011;62988;55.776;37.544;2023-05-29T04:22:06;8.03;;;1.97;;
74503;SDS011;62988;55.776;37.544;2023-05-29T04:24:32;7.82;;;2.00;;
74503;SDS011;62988;55.776;37.544;2023-05-29T04:26:58;11.40;;;2.35;;
74503;SDS011;62988;55.776;37.544;2023-05-29T04:29:26;5.97;;;1.63;;
74503;SDS011;62988;55.776;37.544;2023-05-29T04:31:51;6.80;;;2.13;;
74503;SDS011;62988;55.776;37.544;2023-05-29T04:34:16;6.55;;;2.17;;
74503;SDS011;62988;55.776;37.544;2023-05-29T04:36:42;4.75;;;1.60;;
74503;SDS011;62988;55.776;37.544;2023-05-29T04:39:09;4.85;;;1.90;;
74503;SDS011;62988;55.776;37.544;2023-05-29T04:41:35;7.28;;;1.70;;
74503;SDS011;62988;55.776;37.544;2023-05-29T04:44:00;6.03;;;1.60;;
74503;SDS011;62988;55.776;37.544;2023-05-29T04:46:26;8.38;;;1.35;;
74503;SDS011;62988;55.776;37.544;2023-05-29T04:48:52;8.35;;;1.95;;
74503;SDS011;62988;55.776;37.544;2023-05-29T04:51:20;8.20;;;2.00;;
74503;SDS011;62988;55.776;37.544;2023-05-29T04:53:46;6.18;;;2.10;;
74503;SDS011;62988;55.776;37.544;2023-05-29T04:56:13;5.50;;;1.77;;
74503;SDS011;62988;55.776;37.544;2023-05-29T04:58:38;7.50;;;1.90;;
74503;SDS011;62988;55.776;37.544;2023-05-29T05:01:04;6.60;;;1.80;;
74503;SDS011;62988;55.776;37.544;2023-05-29T05:03:29;6.75;;;1.70;;
74503;SDS011;62988;55.776;37.544;2023-05-29T05:05:56;7.78;;;2.00;;
74503;SDS011;62988;55.776;37.544;2023-05-29T05:08:22;7.18;;;1.75;;
74503;SDS011;62988;55.776;37.544;2023-05-29T05:10:47;4.28;;;1.77;;
74503;SDS011;62988;55.776;37.544;2023-05-29T05:13:13;6.25;;;1.92;;
74503;SDS011;62988;55.776;37.544;2023-05-29T05:15:38;8.32;;;1.90;;
74503;SDS011;62988;55.776;37.544;2023-05-29T05:18:04;6.30;;;2.05;;
74503;SDS011;62988;55.776;37.544;2023-05-29T05:20:29;4.32;;;2.05;;
74503;SDS011;62988;55.776;37.544;2023-05-29T05:22:55;7.32;;;2.00;;
74503;SDS011;62988;55.776;37.544;2023-05-29T05:25:21;11.52;;;2.65;;
74503;SDS011;62988;55.776;37.544;2023-05-29T05:27:46;13.40;;;2.20;;
74503;SDS011;62988;55.776;37.544;2023-05-29T05:30:12;5.13;;;1.97;;
74503;SDS011;62988;55.776;37.544;2023-05-29T05:32:38;4.88;;;1.80;;
74503;SDS011;62988;55.776;37.544;2023-05-29T05:35:03;5.97;;;1.55;;
74503;SDS011;62988;55.776;37.544;2023-05-29T05:37:29;5.13;;;1.88;;
74503;SDS011;62988;55.776;37.544;2023-05-29T05:39:54;5.83;;;1.97;;
74503;SDS011;62988;55.776;37.544;2023-05-29T05:42:20;9.35;;;1.95;;
74503;SDS011;62988;55.776;37.544;2023-05-29T05:44:45;7.95;;;2.05;;
74503;SDS011;62988;55.776;37.544;2023-05-29T05:47:11;7.97;;;1.85;;
74503;SDS011;62988;55.776;37.544;2023-05-29T05:49:36;5.40;;;1.70;;
74503;SDS011;62988;55.776;37.544;2023-05-29T05:52:01;9.43;;;1.60;;
74503;SDS011;62988;55.776;37.544;2023-05-29T05:54:27;3.35;;;0.98;;
74503;SDS011;62988;55.776;37.544;2023-05-29T05:56:52;2.83;;;1.20;;
74503;SDS011;62988;55.776;37.544;2023-05-29T05:59:18;23.63;;;1.98;;
74503;SDS011;62988;55.776;37.544;2023-05-29T06:01:43;4.50;;;1.17;;
74503;SDS011;62988;55.776;37.544;2023-05-29T06:04:08;3.73;;;1.37;;
74503;SDS011;62988;55.776;37.544;2023-05-29T06:06:34;6.47;;;1.30;;
74503;SDS011;62988;55.776;37.544;2023-05-29T06:08:59;4.22;;;1.10;;
74503;SDS011;62988;55.776;37.544;2023-05-29T06:11:25;2.78;;;1.10;;
74503;SDS011;62988;55.776;37.544;2023-05-29T06:13:50;4.43;;;1.50;;
74503;SDS011;62988;55.776;37.544;2023-05-29T06:16:16;6.00;;;1.50;;
74503;SDS011;62988;55.776;37.544;2023-05-29T06:18:42;3.15;;;1.00;;
74503;SDS011;62988;55.776;37.544;2023-05-29T06:21:07;2.83;;;1.05;;
74503;SDS011;62988;55.776;37.544;2023-05-29T06:23:34;6.68;;;1.15;;
74503;SDS011;62988;55.776;37.544;2023-05-29T06:26:01;7.28;;;1.35;;
74503;SDS011;62988;55.776;37.544;2023-05-29T06:28:26;7.45;;;1.10;;
74503;SDS011;62988;55.776;37.544;2023-05-29T06:30:52;4.07;;;1.50;;
74503;SDS011;62988;55.776;37.544;2023-05-29T06:33:26;4.57;;;0.80;;
74503;SDS011;62988;55.776;37.544;2023-05-29T06:35:51;3.80;;;0.75;;
74503;SDS011;62988;55.776;37.544;2023-05-29T06:38:17;2.47;;;1.08;;
74503;SDS011;62988;55.776;37.544;2023-05-29T06:40:42;3.47;;;0.90;;
74503;SDS011;62988;55.776;37.544;2023-05-29T06:43:07;5.50;;;1.00;;
74503;SDS011;62988;55.776;37.544;2023-05-29T06:45:34;2.10;;;0.65;;
74503;SDS011;62988;55.776;37.544;2023-05-29T06:48:00;2.45;;;0.80;;
74503;SDS011;62988;55.776;37.544;2023-05-29T06:50:25;1.42;;;0.63;;
74503;SDS011;62988;55.776;37.544;2023-05-29T06:52:50;1.95;;;0.50;;
74503;SDS011;62988;55.776;37.544;2023-05-29T06:55:16;2.03;;;0.47;;
74503;SDS011;62988;55.776;37.544;2023-05-29T06:57:41;1.93;;;0.93;;
74503;SDS011;62988;55.776;37.544;2023-05-29T07:00:07;4.27;;;0.83;;
74503;SDS011;62988;55.776;37.544;2023-05-29T07:02:34;3.42;;;0.50;;
74503;SDS011;62988;55.776;37.544;2023-05-29T07:04:59;2.40;;;0.75;;
74503;SDS011;62988;55.776;37.544;2023-05-29T07:07:24;2.47;;;0.63;;
74503;SDS011;62988;55.776;37.544;2023-05-29T07:09:50;4.97;;;0.70;;
74503;SDS011;62988;55.776;37.544;2023-05-29T07:12:15;2.60;;;0.80;;
74503;SDS011;62988;55.776;37.544;2023-05-29T07:14:41;3.13;;;1.10;;
74503;SDS011;62988;55.776;37.544;2023-05-29T07:17:06;5.45;;;1.08;;
74503;SDS011;62988;55.776;37.544;2023-05-29T07:19:31;5.60;;;0.90;;
74503;SDS011;62988;55.776;37.544;2023-05-29T07:22:00;3.30;;;0.60;;
74503;SDS011;62988;55.776;37.544;2023-05-29T07:24:26;3.35;;;1.50;;
74503;SDS011;62988;55.776;37.544;2023-05-29T07:26:51;3.15;;;1.08;;
74503;SDS011;62988;55.776;37.544;2023-05-29T07:29:17;5.05;;;0.80;;
74503;SDS011;62988;55.776;37.544;2023-05-29T07:31:45;4.28;;;0.80;;
74503;SDS011;62988;55.776;37.544;2023-05-29T07:34:11;6.50;;;1.20;;
74503;SDS011;62988;55.776;37.544;2023-05-29T07:36:36;5.10;;;1.00;;
74503;SDS011;62988;55.776;37.544;2023-05-29T07:39:02;3.30;;;0.88;;
74503;SDS011;62988;55.776;37.544;2023-05-29T07:41:27;6.50;;;1.27;;
74503;SDS011;62988;55.776;37.544;2023-05-29T07:43:52;6.17;;;0.90;;
74503;SDS011;62988;55.776;37.544;2023-05-29T07:46:19;3.58;;;1.02;;
74503;SDS011;62988;55.776;37.544;2023-05-29T07:48:44;3.10;;;0.88;;
74503;SDS011;62988;55.776;37.544;2023-05-29T07:51:11;3.17;;;0.70;;
74503;SDS011;62988;55.776;37.544;2023-05-29T07:53:37;2.80;;;0.88;;
74503;SDS011;62988;55.776;37.544;2023-05-29T07:56:02;3.10;;;0.80;;
74503;SDS011;62988;55.776;37.544;2023-05-29T07:58:27;3.67;;;0.70;;
74503;SDS011;62988;55.776;37.544;2023-05-29T08:00:53;3.00;;;0.77;;
74503;SDS011;62988;55.776;37.544;2023-05-29T08:03:18;2.22;;;0.85;;
74503;SDS011;62988;55.776;37.544;2023-05-29T08:05:44;4.72;;;1.33;;
74503;SDS011;62988;55.776;37.544;2023-05-29T08:08:09;7.25;;;1.70;;
74503;SDS011;62988;55.776;37.544;2023-05-29T08:10:38;4.68;;;0.95;;
74503;SDS011;62988;55.776;37.544;2023-05-29T08:13:03;5.60;;;0.88;;
74503;SDS011;62988;55.776;37.544;2023-05-29T08:15:28;4.30;;;0.70;;
74503;SDS011;62988;55.776;37.544;2023-05-29T08:17:54;3.60;;;1.35;;
74503;SDS011;62988;55.776;37.544;2023-05-29T08:20:19;1.73;;;0.75;;
74503;SDS011;62988;55.776;37.544;2023-05-29T08:22:45;3.17;;;0.80;;
74503;SDS011;62988;55.776;37.544;2023-05-29T08:25:10;4.47;;;0.93;;
74503;SDS011;62988;55.776;37.544;2023-05-29T08:27:36;2.53;;;0.87;;
74503;SDS011;62988;55.776;37.544;2023-05-29T08:30:02;3.40;;;1.10;;
74503;SDS011;62988;55.776;37.544;2023-05-29T08:32:28;2.53;;;0.70;;
74503;SDS011;62988;55.776;37.544;2023-05-29T08:34:53;1.90;;;0.60;;
74503;SDS011;62988;55.776;37.544;2023-05-29T08:37:19;3.10;;;1.00;;
74503;SDS011;62988;55.776;37.544;2023-05-29T08:39:44;2.63;;;0.82;;
74503;SDS011;62988;55.776;37.544;2023-05-29T08:42:12;2.42;;;1.17;;
74503;SDS011;62988;55.776;37.544;2023-05-29T08:44:39;2.63;;;1.00;;
74503;SDS011;62988;55.776;37.544;2023-05-29T08:47:04;3.60;;;0.90;;
74503;SDS011;62988;55.776;37.544;2023-05-29T08:49:41;5.28;;;0.90;;
74503;SDS011;62988;55.776;37.544;2023-05-29T08:52:09;2.83;;;0.90;;
74503;SDS011;62988;55.776;37.544;2023-05-29T08:54:36;4.57;;;0.90;;
74503;SDS011;62988;55.776;37.544;2023-05-29T08:57:02;4.57;;;1.70;;
74503;SDS011;62988;55.776;37.544;2023-05-29T08:59:29;2.50;;;0.90;;
74503;SDS011;62988;55.776;37.544;2023-05-29T09:01:55;2.20;;;0.75;;
74503;SDS011;62988;55.776;37.544;2023-05-29T09:04:20;4.22;;;1.00;;
74503;SDS011;62988;55.776;37.544;2023-05-29T09:06:46;4.57;;;1.10;;
74503;SDS011;62988;55.776;37.544;2023-05-29T09:09:13;4.85;;;1.10;;
74503;SDS011;62988;55.776;37.544;2023-05-29T09:11:39;2.20;;;1.10;;
74503;SDS011;62988;55.776;37.544;2023-05-29T09:14:04;2.28;;;0.95;;
74503;SDS011;62988;55.776;37.544;2023-05-29T09:16:30;2.15;;;0.85;;
74503;SDS011;62988;55.776;37.544;2023-05-29T09:19:05;1.70;;;0.98;;
74503;SDS011;62988;55.776;37.544;2023-05-29T09:21:31;4.75;;;1.08;;
74503;SDS011;62988;55.776;37.544;2023-05-29T09:24:04;2.95;;;0.80;;
74503;SDS011;62988;55.776;37.544;2023-05-29T09:26:31;3.83;;;0.98;;
74503;SDS011;62988;55.776;37.544;2023-05-29T09:28:56;4.47;;;1.00;;
74503;SDS011;62988;55.776;37.544;2023-05-29T09:31:22;3.17;;;0.95;;
74503;SDS011;62988;55.776;37.544;2023-05-29T09:33:47;3.63;;;1.10;;
74503;SDS011;62988;55.776;37.544;2023-05-29T09:36:19;4.00;;;0.90;;
74503;SDS011;62988;55.776;37.544;2023-05-29T09:38:46;2.13;;;0.90;;
74503;SDS011;62988;55.776;37.544;2023-05-29T09:41:11;5.20;;;1.00;;
74503;SDS011;62988;55.776;37.544;2023-05-29T09:43:36;3.15;;;0.90;;
74503;SDS011;62988;55.776;37.544;2023-05-29T09:46:05;2.90;;;1.00;;
74503;SDS011;62988;55.776;37.544;2023-05-29T09:48:31;4.07;;;1.00;;
74503;SDS011;62988;55.776;37.544;2023-05-29T09:50:57;5.00;;;1.10;;
74503;SDS011;62988;55.776;37.544;2023-05-29T09:53:23;5.78;;;0.90;;
74503;SDS011;62988;55.776;37.544;2023-05-29T09:55:50;5.45;;;1.00;;
74503;SDS011;62988;55.776;37.544;2023-05-29T09:58:17;2.78;;;0.90;;
74503;SDS011;62988;55.776;37.544;2023-05-29T10:00:42;7.47;;;1.30;;
74503;SDS011;62988;55.776;37.544;2023-05-29T10:03:08;2.17;;;1.00;;
74503;SDS011;62988;55.776;37.544;2023-05-29T10:05:34;2.65;;;0.90;;
74503;SDS011;62988;55.776;37.544;2023-05-29T10:08:00;2.65;;;0.90;;
74503;SDS011;62988;55.776;37.544;2023-05-29T10:10:28;3.40;;;1.00;;
74503;SDS011;62988;55.776;37.544;2023-05-29T10:12:54;2.83;;;0.70;;
74503;SDS011;62988;55.776;37.544;2023-05-29T10:15:21;5.97;;;1.10;;
74503;SDS011;62988;55.776;37.544;2023-05-29T10:20:13;1.70;;;0.80;;
74503;SDS011;62988;55.776;37.544;2023-05-29T10:22:41;2.10;;;1.00;;
74503;SDS011;62988;55.776;37.544;2023-05-29T10:25:09;3.83;;;1.65;;
74503;SDS011;62988;55.776;37.544;2023-05-29T10:27:34;2.72;;;0.98;;
74503;SDS011;62988;55.776;37.544;2023-05-29T10:30:02;2.25;;;1.13;;
74503;SDS011;62988;55.776;37.544;2023-05-29T10:32:36;2.60;;;1.10;;
74503;SDS011;62988;55.776;37.544;2023-05-29T10:35:24;5.63;;;1.20;;
74503;SDS011;62988;55.776;37.544;2023-05-29T10:37:57;3.95;;;1.08;;
74503;SDS011;62988;55.776;37.544;2023-05-29T10:40:26;6.57;;;1.05;;
74503;SDS011;62988;55.776;37.544;2023-05-29T10:42:52;3.65;;;1.08;;
74503;SDS011;62988;55.776;37.544;2023-05-29T10:47:54;4.18;;;0.95;;
74503;SDS011;62988;55.776;37.544;2023-05-29T10:50:38;2.35;;;0.95;;
74503;SDS011;62988;55.776;37.544;2023-05-29T10:53:09;3.08;;;0.88;;
74503;SDS011;62988;55.776;37.544;2023-05-29T10:55:37;2.97;;;1.13;;
74503;SDS011;62988;55.776;37.544;2023-05-29T10:58:06;2.65;;;1.02;;
74503;SDS011;62988;55.776;37.544;2023-05-29T11:00:32;3.10;;;0.93;;
74503;SDS011;62988;55.776;37.544;2023-05-29T11:03:01;4.68;;;1.15;;
74503;SDS011;62988;55.776;37.544;2023-05-29T11:05:27;5.97;;;1.15;;
74503;SDS011;62988;55.776;37.544;2023-05-29T11:07:53;4.82;;;1.30;;
74503;SDS011;62988;55.776;37.544;2023-05-29T11:13:04;10.07;;;1.40;;
74503;SDS011;62988;55.776;37.544;2023-05-29T11:15:32;3.67;;;1.05;;
74503;SDS011;62988;55.776;37.544;2023-05-29T11:18:05;3.83;;;1.00;;
74503;SDS011;62988;55.776;37.544;2023-05-29T11:21:03;3.85;;;1.00;;
74503;SDS011;62988;55.776;37.544;2023-05-29T11:23:22;3.53;;;1.02;;
74503;SDS011;62988;55.776;37.544;2023-05-29T11:25:50;3.42;;;0.95;;
74503;SDS011;62988;55.776;37.544;2023-05-29T11:28:16;5.78;;;1.77;;
74503;SDS011;62988;55.776;37.544;2023-05-29T11:30:45;4.35;;;1.00;;
74503;SDS011;62988;55.776;37.544;2023-05-29T11:33:19;2.17;;;1.00;;
74503;SDS011;62988;55.776;37.544;2023-05-29T11:35:49;3.38;;;0.90;;
74503;SDS011;62988;55.776;37.544;2023-05-29T11:38:15;4.55;;;1.33;;
74503;SDS011;62988;55.776;37.544;2023-05-29T11:40:41;4.40;;;1.23;;
74503;SDS011;62988;55.776;37.544;2023-05-29T11:43:07;6.30;;;1.13;;
74503;SDS011;62988;55.776;37.544;2023-05-29T11:45:32;7.25;;;1.70;;
74503;SDS011;62988;55.776;37.544;2023-05-29T11:48:01;9.07;;;1.58;;
74503;SDS011;62988;55.776;37.544;2023-05-29T11:50:28;2.60;;;1.30;;
74503;SDS011;62988;55.776;37.544;2023-05-29T11:52:53;7.00;;;1.13;;
74503;SDS011;62988;55.776;37.544;2023-05-29T11:55:19;8.45;;;2.20;;
74503;SDS011;62988;55.776;37.544;2023-05-29T11:57:46;4.97;;;0.82;;
74503;SDS011;62988;55.776;37.544;2023-05-29T12:00:12;5.65;;;1.40;;
74503;SDS011;62988;55.776;37.544;2023-05-29T12:02:38;12.80;;;1.50;;
74503;SDS011;62988;55.776;37.544;2023-05-29T12:05:04;3.35;;;1.00;;
74503;SDS011;62988;55.776;37.544;2023-05-29T12:07:29;8.48;;;1.20;;
74503;SDS011;62988;55.776;37.544;2023-05-29T12:09:55;2.30;;;0.85;;
74503;SDS011;62988;55.776;37.544;2023-05-29T12:12:23;4.75;;;1.08;;
74503;SDS011;62988;55.776;37.544;2023-05-29T12:14:51;3.75;;;0.98;;
74503;SDS011;62988;55.776;37.544;2023-05-29T12:17:18;4.68;;;1.05;;
74503;SDS011;62988;55.776;37.544;2023-05-29T12:19:43;2.53;;;0.90;;
74503;SDS011;62988;55.776;37.544;2023-05-29T12:22:09;5.53;;;1.15;;
74503;SDS011;62988;55.776;37.544;2023-05-29T12:24:34;3.80;;;1.00;;
74503;SDS011;62988;55.776;37.544;2023-05-29T12:27:03;5.00;;;1.85;;
74503;SDS011;62988;55.776;37.544;2023-05-29T12:31:57;4.03;;;0.93;;
74503;SDS011;62988;55.776;37.544;2023-05-29T12:34:23;4.72;;;1.25;;
74503;SDS011;62988;55.776;37.544;2023-05-29T12:36:48;6.03;;;1.60;;
74503;SDS011;62988;55.776;37.544;2023-05-29T12:39:13;4.65;;;1.40;;
74503;SDS011;62988;55.776;37.544;2023-05-29T12:41:39;3.37;;;1.20;;
74503;SDS011;62988;55.776;37.544;2023-05-29T12:44:05;3.05;;;1.27;;
74503;SDS011;62988;55.776;37.544;2023-05-29T12:46:41;2.85;;;1.10;;
74503;SDS011;62988;55.776;37.544;2023-05-29T12:49:17;2.15;;;1.08;;
74503;SDS011;62988;55.776;37.544;2023-05-29T12:51:46;3.90;;;1.20;;
74503;SDS011;62988;55.776;37.544;2023-05-29T12:54:12;2.55;;;1.10;;
74503;SDS011;62988;55.776;37.544;2023-05-29T12:56:38;6.85;;;1.60;;
74503;SDS011;62988;55.776;37.544;2023-05-29T12:59:05;7.88;;;1.40;;
74503;SDS011;62988;55.776;37.544;2023-05-29T13:01:31;6.15;;;2.22;;
74503;SDS011;62988;55.776;37.544;2023-05-29T13:03:57;6.60;;;1.08;;
74503;SDS011;62988;55.776;37.544;2023-05-29T13:06:22;6.93;;;1.50;;
74503;SDS011;62988;55.776;37.544;2023-05-29T13:08:47;6.63;;;1.60;;
74503;SDS011;62988;55.776;37.544;2023-05-29T13:11:13;6.05;;;1.77;;
74503;SDS011;62988;55.776;37.544;2023-05-29T13:13:38;3.50;;;1.63;;
74503;SDS011;62988;55.776;37.544;2023-05-29T13:16:04;5.93;;;1.00;;
74503;SDS011;62988;55.776;37.544;2023-05-29T13:18:29;3.17;;;1.00;;
74503;SDS011;62988;55.776;37.544;2023-05-29T13:20:54;2.03;;;0.90;;
74503;SDS011;62988;55.776;37.544;2023-05-29T13:23:20;5.13;;;1.23;;
74503;SDS011;62988;55.776;37.544;2023-05-29T13:25:45;3.30;;;1.10;;
74503;SDS011;62988;55.776;37.544;2023-05-29T13:28:13;1.52;;;0.80;;
74503;SDS011;62988;55.776;37.544;2023-05-29T13:30:38;4.30;;;1.08;;
74503;SDS011;62988;55.776;37.544;2023-05-29T13:33:03;2.23;;;1.20;;
74503;SDS011;62988;55.776;37.544;2023-05-29T13:35:29;3.15;;;1.15;;
74503;SDS011;62988;55.776;37.544;2023-05-29T13:37:54;4.50;;;1.30;;
74503;SDS011;62988;55.776;37.544;2023-05-29T13:40:20;7.13;;;2.38;;
74503;SDS011;62988;55.776;37.544;2023-05-29T13:42:45;4.22;;;0.90;;
74503;SDS011;62988;55.776;37.544;2023-05-29T13:45:10;4.57;;;1.00;;
74503;SDS011;62988;55.776;37.544;2023-05-29T13:47:37;6.97;;;1.55;;
74503;SDS011;62988;55.776;37.544;2023-05-29T13:50:02;5.88;;;1.17;;
74503;SDS011;62988;55.776;37.544;2023-05-29T13:52:28;3.85;;;1.33;;
74503;SDS011;62988;55.776;37.544;2023-05-29T13:54:53;3.10;;;1.20;;
74503;SDS011;62988;55.776;37.544;2023-05-29T13:57:19;4.85;;;1.13;;
74503;SDS011;62988;55.776;37.544;2023-05-29T13:59:44;3.05;;;1.13;;
74503;SDS011;62988;55.776;37.544;2023-05-29T14:02:10;1.87;;;0.80;;
74503;SDS011;62988;55.776;37.544;2023-05-29T14:04:36;4.45;;;1.20;;
74503;SDS011;62988;55.776;37.544;2023-05-29T14:07:01;6.35;;;1.10;;
74503;SDS011;62988;55.776;37.544;2023-05-29T14:09:27;6.25;;;0.90;;
74503;SDS011;62988;55.776;37.544;2023-05-29T14:11:53;3.53;;;1.10;;
74503;SDS011;62988;55.776;37.544;2023-05-29T14:14:18;3.55;;;1.15;;
74503;SDS011;62988;55.776;37.544;2023-05-29T14:16:44;3.85;;;0.95;;
74503;SDS011;62988;55.776;37.544;2023-05-29T14:19:09;3.55;;;0.90;;
74503;SDS011;62988;55.776;37.544;2023-05-29T14:21:35;4.32;;;1.50;;
74503;SDS011;62988;55.776;37.544;2023-05-29T14:24:01;7.95;;;4.35;;
74503;SDS011;62988;55.776;37.544;2023-05-29T14:26:26;4.63;;;1.30;;
74503;SDS011;62988;55.776;37.544;2023-05-29T14:28:52;4.20;;;1.05;;
74503;SDS011;62988;55.776;37.544;2023-05-29T14:31:17;4.53;;;1.20;;
74503;SDS011;62988;55.776;37.544;2023-05-29T14:33:42;5.33;;;1.23;;
74503;SDS011;62988;55.776;37.544;2023-05-29T14:36:08;4.60;;;1.30;;
74503;SDS011;62988;55.776;37.544;2023-05-29T14:38:33;2.13;;;1.13;;
74503;SDS011;62988;55.776;37.544;2023-05-29T14:40:58;6.13;;;1.50;;